createdAt,value
2023-03-19T00:01:26.898Z,91.50
2023-03-19T00:03:51.656Z,91.90
2023-03-19T00:06:16.496Z,92.30
2023-03-19T00:08:42.022Z,92.60
2023-03-19T00:11:13.476Z,92.80
2023-03-19T00:13:38.164Z,92.90
2023-03-19T00:16:02.639Z,93.00
2023-03-19T00:18:27.074Z,93.00
2023-03-19T00:20:52.987Z,93.00
2023-03-19T00:23:17.988Z,92.90
2023-03-19T00:25:42.371Z,92.80
2023-03-19T00:28:08.244Z,92.60
2023-03-19T00:30:32.719Z,92.80
2023-03-19T00:32:57.276Z,92.80
2023-03-19T00:35:21.975Z,92.80
2023-03-19T00:37:46.505Z,92.70
2023-03-19T00:40:12.355Z,92.70
2023-03-19T00:42:37.346Z,92.70
2023-03-19T00:45:03.792Z,93.00
2023-03-19T00:47:30.899Z,92.80
2023-03-19T00:49:55.802Z,93.00
2023-03-19T00:52:20.493Z,92.90
2023-03-19T00:54:45.020Z,93.00
2023-03-19T00:57:10.125Z,92.90
2023-03-19T00:59:34.568Z,93.00
2023-03-19T01:02:01.635Z,92.90
2023-03-19T01:04:26.245Z,93.30
2023-03-19T01:06:52.499Z,93.20
2023-03-19T01:09:17.361Z,93.50
2023-03-19T01:11:42.015Z,93.70
2023-03-19T01:14:06.888Z,93.70
2023-03-19T01:16:31.633Z,94.30
2023-03-19T01:18:58.551Z,93.70
2023-03-19T01:21:23.222Z,93.50
2023-03-19T01:23:48.319Z,93.30
2023-03-19T01:26:13.786Z,93.30
2023-03-19T01:28:38.693Z,93.40
2023-03-19T01:31:07.121Z,93.80
2023-03-19T01:33:31.762Z,93.90
2023-03-19T01:36:03.525Z,93.30
2023-03-19T01:38:35.919Z,94.00
2023-03-19T01:41:03.655Z,93.90
2023-03-19T01:43:30.806Z,93.90
2023-03-19T01:46:09.206Z,94.10
2023-03-19T01:48:55.109Z,94.50
2023-03-19T01:51:25.037Z,94.50
2023-03-19T01:54:21.658Z,94.80
2023-03-19T01:56:58.477Z,94.40
2023-03-19T01:59:50.289Z,94.20
2023-03-19T02:02:30.755Z,94.30
2023-03-19T02:05:02.113Z,94.00
2023-03-19T02:07:32.052Z,93.90
2023-03-19T02:09:56.693Z,94.40
2023-03-19T02:12:21.582Z,94.20
2023-03-19T02:14:46.176Z,93.90
2023-03-19T02:17:11.413Z,94.00
2023-03-19T02:19:47.168Z,93.80
2023-03-19T02:22:14.128Z,93.20
2023-03-19T02:24:46.576Z,93.00
2023-03-19T02:27:18.090Z,93.00
2023-03-19T02:29:45.586Z,93.30
2023-03-19T02:32:11.219Z,93.30
2023-03-19T02:34:39.217Z,93.20
2023-03-19T02:37:08.235Z,93.40
2023-03-19T02:39:39.448Z,93.70
2023-03-19T02:42:04.832Z,93.60
2023-03-19T02:44:30.859Z,94.20
2023-03-19T02:46:55.446Z,95.50
2023-03-19T02:49:20.353Z,95.90
2023-03-19T02:51:44.945Z,96.60
2023-03-19T02:54:09.821Z,96.80
2023-03-19T02:56:34.782Z,97.70
2023-03-19T02:58:59.232Z,98.30
2023-03-19T03:01:25.274Z,98.60
2023-03-19T03:03:49.840Z,99.10
2023-03-19T03:06:14.761Z,98.60
2023-03-19T03:08:39.304Z,98.20
2023-03-19T03:11:03.914Z,98.40
2023-03-19T03:13:29.285Z,98.30
2023-03-19T03:15:53.823Z,98.20
2023-03-19T03:18:19.908Z,98.50
2023-03-19T03:20:45.736Z,98.70
2023-03-19T03:23:11.493Z,99.20
2023-03-19T03:25:36.555Z,99.90
2023-03-19T03:28:01.086Z,99.90
2023-03-19T03:30:26.798Z,99.80
2023-03-19T03:32:52.061Z,99.90
2023-03-19T03:35:21.998Z,99.90
2023-03-19T03:37:46.365Z,99.90
2023-03-19T03:40:11.912Z,99.70
2023-03-19T03:42:38.146Z,99.40
2023-03-19T03:45:05.776Z,98.40
2023-03-19T03:47:30.552Z,98.30
2023-03-19T03:49:55.772Z,98.10
2023-03-19T03:52:22.612Z,97.90
2023-03-19T03:54:47.092Z,97.60
2023-03-19T03:57:12.400Z,97.70
2023-03-19T03:59:37.248Z,97.90
2023-03-19T04:02:02.068Z,97.80
2023-03-19T04:04:26.852Z,97.80
2023-03-19T04:06:51.450Z,97.70
2023-03-19T04:09:37.711Z,98.00
2023-03-19T04:12:02.879Z,97.90
2023-03-19T04:14:27.941Z,97.70
2023-03-19T04:16:53.572Z,98.70
2023-03-19T04:19:21.481Z,98.70
2023-03-19T04:21:46.120Z,98.50
2023-03-19T04:24:11.510Z,98.20
2023-03-19T04:26:42.562Z,98.10
2023-03-19T04:29:08.538Z,98.60
2023-03-19T04:31:33.367Z,98.50
2023-03-19T04:33:58.534Z,98.10
2023-03-19T04:36:23.268Z,98.50
2023-03-19T04:38:47.953Z,98.20
2023-03-19T04:41:12.534Z,98.00
2023-03-19T04:43:44.628Z,96.50
2023-03-19T04:46:09.580Z,96.10
2023-03-19T04:48:35.928Z,95.60
2023-03-19T04:51:00.835Z,94.50
2023-03-19T04:53:25.836Z,93.70
2023-03-19T04:55:50.896Z,93.30
2023-03-19T04:58:17.640Z,92.80
2023-03-19T05:00:47.725Z,91.90
2023-03-19T05:03:17.226Z,91.80
2023-03-19T05:05:42.188Z,92.30
2023-03-19T05:08:07.472Z,91.80
2023-03-19T05:10:33.438Z,91.40
2023-03-19T05:12:58.021Z,91.00
2023-03-19T05:15:22.691Z,90.60
2023-03-19T05:18:06.425Z,90.10
2023-03-19T05:20:35.986Z,90.10
2023-03-19T05:23:04.537Z,89.00
2023-03-19T05:25:36.613Z,88.40
2023-03-19T05:28:04.517Z,87.20
2023-03-19T05:30:29.230Z,86.40
2023-03-19T05:33:06.738Z,86.20
2023-03-19T05:35:34.757Z,84.80
2023-03-19T05:38:01.661Z,83.80
2023-03-19T05:40:27.191Z,82.90
2023-03-19T05:42:52.969Z,82.40
2023-03-19T05:45:21.002Z,81.60
2023-03-19T05:47:52.865Z,81.30
2023-03-19T05:50:20.222Z,81.20
2023-03-19T05:53:07.952Z,80.90
2023-03-19T05:55:37.065Z,81.60
2023-03-19T05:58:04.521Z,82.20
2023-03-19T06:00:29.251Z,84.60
2023-03-19T06:02:54.969Z,87.20
2023-03-19T06:05:53.141Z,85.50
2023-03-19T06:08:37.865Z,86.20
2023-03-19T06:11:11.000Z,86.60
2023-03-19T06:13:36.062Z,85.10
2023-03-19T06:16:07.352Z,83.60
2023-03-19T06:18:40.502Z,82.70
2023-03-19T06:21:09.978Z,81.30
2023-03-19T06:23:34.918Z,80.80
2023-03-19T06:26:02.157Z,79.80
2023-03-19T06:28:31.949Z,79.20
2023-03-19T06:30:56.933Z,79.00
2023-03-19T06:33:39.628Z,77.60
2023-03-19T06:36:04.243Z,77.10
2023-03-19T06:38:32.013Z,76.10
2023-03-19T06:40:56.571Z,75.50
2023-03-19T06:43:21.070Z,75.10
2023-03-19T06:45:45.688Z,74.50
2023-03-19T06:48:10.178Z,74.70
2023-03-19T06:50:34.839Z,75.50
2023-03-19T06:52:59.742Z,74.90
2023-03-19T06:55:25.798Z,75.00
2023-03-19T06:57:51.432Z,74.60
2023-03-19T07:00:17.206Z,73.70
2023-03-19T07:02:41.823Z,73.50
2023-03-19T07:05:07.006Z,73.50
2023-03-19T07:07:31.700Z,73.00
2023-03-19T07:09:56.186Z,72.60
2023-03-19T07:12:22.016Z,72.30
2023-03-19T07:14:46.548Z,73.50
2023-03-19T07:17:11.121Z,72.40
2023-03-19T07:19:35.825Z,73.80
2023-03-19T07:22:00.377Z,72.70
2023-03-19T07:24:25.239Z,73.90
2023-03-19T07:26:52.013Z,72.90
2023-03-19T07:29:18.225Z,72.80
2023-03-19T07:31:43.007Z,71.90
2023-03-19T07:34:07.745Z,72.90
2023-03-19T07:36:32.228Z,72.80
2023-03-19T07:38:57.536Z,72.20
2023-03-19T07:41:22.139Z,72.40
2023-03-19T07:43:46.760Z,72.90
2023-03-19T07:46:12.830Z,73.00
2023-03-19T07:48:37.562Z,72.90
2023-03-19T07:51:02.873Z,74.30
2023-03-19T07:53:27.403Z,75.60
2023-03-19T07:55:52.242Z,75.00
2023-03-19T07:58:17.262Z,73.90
2023-03-19T08:00:41.767Z,74.10
2023-03-19T08:03:07.998Z,73.30
2023-03-19T08:05:32.655Z,75.20
2023-03-19T08:07:57.372Z,74.50
2023-03-19T08:10:22.088Z,75.20
2023-03-19T08:12:49.069Z,74.40
2023-03-19T08:15:14.079Z,75.20
2023-03-19T08:17:39.274Z,75.60
2023-03-19T08:20:06.336Z,74.90
2023-03-19T08:22:31.031Z,73.80
2023-03-19T08:24:55.673Z,73.40
2023-03-19T08:27:20.650Z,74.20
2023-03-19T08:29:45.783Z,74.40
2023-03-19T08:32:12.687Z,73.90
2023-03-19T08:34:37.181Z,71.50
2023-03-19T08:37:03.662Z,73.00
2023-03-19T08:39:28.731Z,72.10
2023-03-19T08:41:53.103Z,73.00
2023-03-19T08:44:17.433Z,72.00
2023-03-19T08:46:42.742Z,70.80
2023-03-19T08:49:07.193Z,70.70
2023-03-19T08:51:32.058Z,70.80
2023-03-19T08:53:57.935Z,70.80
2023-03-19T08:56:24.587Z,72.10
2023-03-19T08:58:49.135Z,71.90
2023-03-19T09:01:15.105Z,71.80
2023-03-19T09:03:40.167Z,70.10
2023-03-19T09:06:06.496Z,70.70
2023-03-19T09:08:37.903Z,69.60
2023-03-19T09:11:04.050Z,70.00
2023-03-19T09:13:28.768Z,69.70
2023-03-19T09:15:53.393Z,70.00
2023-03-19T09:18:18.008Z,69.20
2023-03-19T09:20:43.765Z,70.10
2023-03-19T09:23:08.258Z,70.20
2023-03-19T09:25:33.045Z,69.50
2023-03-19T09:27:59.135Z,70.00
2023-03-19T09:30:23.815Z,70.20
2023-03-19T09:32:48.205Z,70.70
2023-03-19T09:35:13.146Z,70.00
2023-03-19T09:37:37.754Z,68.40
2023-03-19T09:40:02.163Z,68.70
2023-03-19T09:42:46.393Z,69.80
2023-03-19T09:45:17.874Z,69.80
2023-03-19T09:47:43.727Z,69.50
2023-03-19T09:50:14.716Z,69.60
2023-03-19T09:52:52.891Z,69.20
2023-03-19T09:55:39.295Z,68.50
2023-03-19T09:58:15.818Z,75.30
2023-03-19T10:00:44.251Z,67.20
2023-03-19T10:03:25.524Z,66.20
2023-03-19T10:05:59.882Z,65.80
2023-03-19T10:08:45.836Z,66.90
2023-03-19T10:11:25.941Z,66.20
2023-03-19T10:14:03.893Z,66.60
2023-03-19T10:16:32.493Z,67.80
2023-03-19T10:19:00.916Z,67.10
2023-03-19T10:21:32.315Z,66.30
2023-03-19T10:24:01.936Z,66.50
2023-03-19T10:26:31.788Z,66.50
2023-03-19T10:28:59.087Z,66.90
2023-03-19T10:31:34.692Z,67.30
2023-03-19T10:34:11.976Z,68.00
2023-03-19T10:36:38.036Z,67.50
2023-03-19T10:39:04.846Z,67.40
2023-03-19T10:41:39.531Z,66.30
2023-03-19T10:44:08.332Z,67.50
2023-03-19T10:46:44.351Z,66.20
2023-03-19T10:49:36.615Z,65.90
2023-03-19T10:52:01.565Z,66.20
2023-03-19T10:54:32.408Z,66.50
2023-03-19T10:57:04.566Z,66.50
2023-03-19T10:59:34.448Z,66.70
2023-03-19T11:02:12.451Z,66.50
2023-03-19T11:04:38.195Z,66.10
2023-03-19T11:07:10.573Z,66.20
2023-03-19T11:10:01.202Z,65.20
2023-03-19T11:12:34.056Z,65.50
2023-03-19T11:14:59.959Z,65.00
2023-03-19T11:17:38.033Z,65.10
2023-03-19T11:20:20.122Z,64.80
2023-03-19T11:22:46.179Z,65.80
2023-03-19T11:25:19.167Z,65.30
2023-03-19T11:27:45.768Z,65.70
2023-03-19T11:30:18.633Z,65.90
2023-03-19T11:33:09.986Z,66.20
2023-03-19T11:35:38.804Z,65.80
2023-03-19T11:38:05.157Z,64.90
2023-03-19T11:40:44.113Z,64.90
2023-03-19T11:43:32.596Z,64.50
2023-03-19T11:46:05.858Z,64.70
2023-03-19T11:48:47.862Z,64.00
2023-03-19T11:51:20.649Z,63.80
2023-03-19T11:54:00.562Z,64.40
2023-03-19T11:56:34.402Z,63.30
2023-03-19T11:59:33.480Z,63.20
2023-03-19T12:02:20.228Z,62.30
2023-03-19T12:05:00.938Z,62.00
2023-03-19T12:07:30.022Z,61.90
2023-03-19T12:10:05.790Z,62.10
2023-03-19T12:12:39.512Z,61.50
2023-03-19T12:15:14.192Z,61.20
2023-03-19T12:17:52.806Z,60.90
2023-03-19T12:20:36.289Z,61.00
2023-03-19T12:23:07.646Z,60.50
2023-03-19T12:25:43.614Z,60.10
2023-03-19T12:28:17.323Z,59.40
2023-03-19T12:30:46.199Z,59.70
2023-03-19T12:33:34.718Z,60.30
2023-03-19T12:36:03.222Z,61.10
2023-03-19T12:38:33.084Z,62.00
2023-03-19T12:40:59.702Z,60.70
2023-03-19T12:43:29.780Z,61.30
2023-03-19T12:45:58.929Z,60.40
2023-03-19T12:48:29.617Z,61.10
2023-03-19T12:50:58.494Z,61.20
2023-03-19T12:53:35.711Z,60.60
2023-03-19T12:56:06.151Z,60.10
2023-03-19T12:58:45.097Z,59.50
2023-03-19T13:01:14.748Z,59.70
2023-03-19T13:03:46.898Z,59.80
2023-03-19T13:06:18.504Z,60.30
2023-03-19T13:08:49.303Z,59.70
2023-03-19T13:11:16.873Z,59.80
2023-03-19T13:13:46.784Z,60.10
2023-03-19T13:16:15.385Z,60.50
2023-03-19T13:18:48.905Z,59.60
2023-03-19T13:21:23.544Z,60.10
2023-03-19T13:23:52.696Z,60.40
2023-03-19T13:26:18.845Z,60.40
2023-03-19T13:29:00.267Z,59.80
2023-03-19T13:31:28.082Z,59.60
2023-03-19T13:34:01.849Z,59.10
2023-03-19T13:36:32.863Z,59.10
2023-03-19T13:39:01.275Z,59.60
2023-03-19T13:41:52.475Z,59.40
2023-03-19T13:44:36.050Z,60.30
2023-03-19T13:47:03.960Z,60.30
2023-03-19T13:49:36.362Z,59.80
2023-03-19T13:52:20.590Z,60.00
2023-03-19T13:54:47.771Z,60.40
2023-03-19T13:57:37.991Z,60.20
2023-03-19T14:00:51.080Z,61.00
2023-03-19T14:03:22.845Z,60.80
2023-03-19T14:05:49.788Z,60.60
2023-03-19T14:08:20.484Z,60.40
2023-03-19T14:10:52.584Z,60.60
2023-03-19T14:13:24.585Z,61.20
2023-03-19T14:15:51.905Z,61.00
2023-03-19T14:18:20.144Z,60.60
2023-03-19T14:20:52.238Z,60.70
2023-03-19T14:23:36.101Z,60.80
2023-03-19T14:26:11.576Z,60.90
2023-03-19T14:28:43.494Z,61.40
2023-03-19T14:31:19.611Z,61.40
2023-03-19T14:33:48.026Z,61.30
2023-03-19T14:36:18.702Z,61.50
2023-03-19T14:38:50.772Z,62.80
2023-03-19T14:41:20.706Z,62.60
2023-03-19T14:44:06.810Z,62.30
2023-03-19T14:46:43.257Z,62.40
2023-03-19T14:49:55.790Z,62.60
2023-03-19T14:52:23.893Z,63.20
2023-03-19T14:54:52.378Z,63.40
2023-03-19T14:57:21.584Z,63.40
2023-03-19T14:59:46.372Z,63.20
2023-03-19T15:02:33.734Z,63.20
2023-03-19T15:05:00.523Z,63.00
2023-03-19T15:07:31.938Z,62.40
2023-03-19T15:09:58.595Z,63.20
2023-03-19T15:13:17.430Z,63.70
2023-03-19T15:15:59.702Z,64.10
2023-03-19T15:18:26.170Z,64.40
2023-03-19T15:20:55.568Z,64.90
2023-03-19T15:23:27.326Z,65.50
2023-03-19T15:25:58.276Z,66.10
2023-03-19T15:28:22.790Z,66.00
2023-03-19T15:31:05.754Z,66.80
2023-03-19T15:33:41.423Z,66.10
2023-03-19T15:36:12.101Z,66.50
2023-03-19T15:38:40.624Z,67.00
2023-03-19T15:41:06.842Z,68.20
2023-03-19T15:43:32.112Z,68.60
2023-03-19T15:45:58.800Z,68.60
2023-03-19T15:48:25.823Z,68.30
2023-03-19T15:50:53.112Z,68.10
2023-03-19T15:53:21.343Z,68.40
2023-03-19T15:55:46.113Z,69.10
2023-03-19T15:58:16.711Z,68.40
2023-03-19T16:00:42.637Z,68.40
2023-03-19T16:03:13.710Z,68.40
2023-03-19T16:05:38.206Z,68.60
2023-03-19T16:08:12.188Z,69.00
2023-03-19T16:10:42.486Z,69.10
2023-03-19T16:13:30.974Z,69.40
2023-03-19T16:16:03.091Z,69.50
2023-03-19T16:18:32.023Z,69.60
2023-03-19T16:21:08.312Z,70.00
2023-03-19T16:23:37.510Z,69.90
2023-03-19T16:26:16.881Z,70.00
2023-03-19T16:28:45.423Z,70.30
2023-03-19T16:31:24.865Z,70.60
2023-03-19T16:33:52.917Z,71.20
2023-03-19T16:36:17.387Z,70.70
2023-03-19T16:38:46.388Z,70.70
2023-03-19T16:41:19.362Z,70.60
2023-03-19T16:43:47.673Z,70.60
2023-03-19T16:46:16.570Z,70.70
2023-03-19T16:48:43.429Z,70.80
2023-03-19T16:51:16.779Z,70.80
2023-03-19T16:53:43.015Z,70.80
2023-03-19T16:56:08.527Z,70.80
2023-03-19T16:58:36.175Z,70.90
2023-03-19T17:01:01.873Z,71.00
2023-03-19T17:03:26.885Z,71.00
2023-03-19T17:05:51.458Z,71.10
2023-03-19T17:08:17.492Z,71.40
2023-03-19T17:10:44.864Z,71.50
2023-03-19T17:13:15.448Z,71.80
2023-03-19T17:15:44.214Z,72.00
2023-03-19T17:18:15.775Z,72.60
2023-03-19T17:20:47.913Z,73.00
2023-03-19T17:23:13.343Z,73.10
2023-03-19T17:25:39.838Z,73.10
2023-03-19T17:28:04.354Z,73.30
2023-03-19T17:30:29.019Z,73.50
2023-03-19T17:32:57.325Z,73.60
2023-03-19T17:35:23.312Z,73.70
2023-03-19T17:37:48.881Z,73.80
2023-03-19T17:40:19.608Z,74.00
2023-03-19T17:42:45.732Z,74.30
2023-03-19T17:45:13.957Z,74.60
2023-03-19T17:47:38.831Z,75.00
2023-03-19T17:50:03.509Z,75.70
2023-03-19T17:52:30.494Z,76.00
2023-03-19T17:54:55.437Z,76.00
2023-03-19T17:57:20.364Z,76.70
2023-03-19T17:59:46.340Z,77.30
2023-03-19T18:02:29.112Z,77.90
2023-03-19T18:04:54.131Z,78.30
2023-03-19T18:07:19.008Z,78.10
2023-03-19T18:09:44.367Z,78.10
2023-03-19T18:12:09.168Z,78.60
2023-03-19T18:14:33.709Z,78.90
2023-03-19T18:17:00.025Z,79.00
2023-03-19T18:19:29.777Z,79.00
2023-03-19T18:21:54.340Z,79.50
2023-03-19T18:24:19.180Z,78.90
2023-03-19T18:26:44.017Z,79.00
2023-03-19T18:29:09.151Z,79.30
2023-03-19T18:31:33.685Z,79.20
2023-03-19T18:34:03.713Z,79.30
2023-03-19T18:36:31.331Z,79.70
2023-03-19T18:38:59.108Z,79.80
2023-03-19T18:41:26.155Z,79.90
2023-03-19T18:44:03.024Z,80.00
2023-03-19T18:46:30.131Z,80.20
2023-03-19T18:48:56.942Z,80.20
2023-03-19T18:51:22.838Z,80.90
2023-03-19T18:53:49.201Z,81.20
2023-03-19T18:56:25.073Z,81.50
2023-03-19T18:58:50.119Z,81.10
2023-03-19T19:01:17.511Z,81.20
2023-03-19T19:03:42.021Z,81.40
2023-03-19T19:06:06.935Z,81.90
2023-03-19T19:08:33.063Z,81.80
2023-03-19T19:11:03.475Z,81.30
2023-03-19T19:13:53.314Z,81.40
2023-03-19T19:16:23.941Z,81.70
2023-03-19T19:18:49.134Z,81.80
2023-03-19T19:21:14.084Z,81.60
2023-03-19T19:23:40.003Z,82.00
2023-03-19T19:26:06.841Z,82.60
2023-03-19T19:28:34.142Z,82.70
2023-03-19T19:31:00.923Z,82.60
2023-03-19T19:33:27.785Z,82.20
2023-03-19T19:35:53.239Z,82.20
2023-03-19T19:38:17.690Z,82.60
2023-03-19T19:40:45.175Z,82.40
2023-03-19T19:43:18.222Z,82.50
2023-03-19T19:45:43.832Z,82.40
2023-03-19T19:48:16.250Z,82.70
2023-03-19T19:50:41.485Z,82.70
2023-03-19T19:53:06.624Z,82.50
2023-03-19T19:55:31.222Z,82.90
2023-03-19T19:57:58.676Z,83.40
2023-03-19T20:00:26.142Z,83.60
2023-03-19T20:02:53.397Z,83.60
2023-03-19T20:05:21.730Z,83.60
2023-03-19T20:07:46.312Z,83.40
2023-03-19T20:10:12.994Z,83.70
2023-03-19T20:12:37.756Z,83.70
2023-03-19T20:15:03.742Z,83.60
2023-03-19T20:17:28.382Z,84.20
2023-03-19T20:19:52.884Z,84.20
2023-03-19T20:22:17.553Z,84.40
2023-03-19T20:24:42.321Z,84.60
2023-03-19T20:27:19.300Z,84.70
2023-03-19T20:29:44.214Z,85.00
2023-03-19T20:32:27.043Z,84.60
2023-03-19T20:34:51.655Z,84.90
2023-03-19T20:37:16.661Z,86.00
2023-03-19T20:39:41.185Z,85.70
2023-03-19T20:42:06.331Z,86.10
2023-03-19T20:44:31.460Z,86.30
2023-03-19T20:46:55.955Z,86.30
2023-03-19T20:49:21.981Z,86.70
2023-03-19T20:51:46.643Z,87.00
2023-03-19T20:54:11.291Z,87.10
2023-03-19T20:56:39.301Z,87.60
2023-03-19T20:59:03.799Z,87.50
2023-03-19T21:01:28.358Z,87.60
2023-03-19T21:03:53.405Z,87.70
2023-03-19T21:06:21.870Z,88.00
2023-03-19T21:08:48.795Z,87.90
2023-03-19T21:11:17.860Z,89.10
2023-03-19T21:13:42.739Z,88.20
2023-03-19T21:16:08.256Z,88.00
2023-03-19T21:18:32.850Z,88.10
2023-03-19T21:20:59.794Z,88.10
2023-03-19T21:23:31.683Z,88.10
2023-03-19T21:25:56.538Z,88.60
2023-03-19T21:28:25.505Z,88.60
2023-03-19T21:30:50.072Z,89.10
2023-03-19T21:33:24.725Z,89.50
2023-03-19T21:35:49.452Z,89.30
2023-03-19T21:38:13.908Z,89.60
2023-03-19T21:40:40.000Z,90.10
2023-03-19T21:43:05.714Z,90.30
2023-03-19T21:45:33.953Z,90.30
2023-03-19T21:48:03.473Z,90.30
2023-03-19T21:50:27.933Z,90.50
2023-03-19T21:53:00.582Z,90.70
2023-03-19T21:55:25.852Z,90.60
2023-03-19T21:57:55.682Z,90.60
2023-03-19T22:00:21.588Z,90.80
2023-03-19T22:02:48.465Z,90.80
2023-03-19T22:05:18.345Z,90.80
2023-03-19T22:07:42.920Z,90.80
2023-03-19T22:10:08.054Z,90.90
2023-03-19T22:12:34.872Z,91.00
2023-03-19T22:15:01.279Z,91.00
2023-03-19T22:17:27.650Z,91.00
2023-03-19T22:19:52.104Z,90.80
2023-03-19T22:22:16.604Z,91.20
2023-03-19T22:24:42.092Z,91.30
2023-03-19T22:27:06.795Z,91.60
2023-03-19T22:29:34.385Z,91.70
2023-03-19T22:32:00.391Z,91.70
2023-03-19T22:34:27.702Z,91.70
2023-03-19T22:36:52.390Z,91.70
2023-03-19T22:39:16.936Z,91.00
2023-03-19T22:41:45.618Z,91.50
2023-03-19T22:44:18.559Z,92.20
2023-03-19T22:46:43.050Z,92.60
2023-03-19T22:49:14.528Z,92.80
2023-03-19T22:51:39.050Z,92.70
2023-03-19T22:54:03.518Z,92.70
2023-03-19T22:56:28.114Z,92.80
2023-03-19T22:58:53.110Z,93.00
2023-03-19T23:01:36.416Z,93.20
2023-03-19T23:04:20.435Z,93.30
2023-03-19T23:06:44.980Z,93.50
2023-03-19T23:09:14.046Z,93.30
2023-03-19T23:11:39.567Z,93.80
2023-03-19T23:14:04.000Z,94.10
2023-03-19T23:16:28.641Z,94.10
2023-03-19T23:21:23.535Z,94.30
2023-03-19T23:23:48.230Z,94.20
2023-03-19T23:26:26.660Z,94.00
2023-03-19T23:28:51.638Z,93.80
2023-03-19T23:31:16.300Z,93.40
2023-03-19T23:33:41.244Z,93.80
2023-03-19T23:36:06.351Z,93.50
2023-03-19T23:38:32.924Z,93.40
2023-03-19T23:40:57.457Z,93.20
2023-03-19T23:43:24.281Z,93.30
2023-03-19T23:45:50.094Z,93.30
2023-03-19T23:48:17.275Z,93.40
2023-03-19T23:50:41.772Z,93.20
2023-03-19T23:53:06.414Z,93.40
2023-03-19T23:55:33.648Z,93.20
2023-03-19T23:57:59.333Z,92.00
